createdAt,value
2019-03-29T00:04:43.734Z,15.54
2019-03-29T00:09:32.117Z,16.28
2019-03-29T00:14:52.289Z,15.45
2019-03-29T00:19:54.257Z,15.55
2019-03-29T00:24:53.919Z,14.59
2019-03-29T00:39:49.736Z,15.70
2019-03-29T00:45:10.738Z,16.29
2019-03-29T00:50:11.957Z,17.14
2019-03-29T00:55:11.940Z,16.08
2019-03-29T01:00:13.015Z,17.00
2019-03-29T01:10:18.091Z,17.02
2019-03-29T01:15:19.045Z,17.14
2019-03-29T01:20:20.357Z,17.60
2019-03-29T01:25:08.291Z,17.64
2019-03-29T01:30:27.779Z,16.68
2019-03-29T01:35:28.789Z,16.67
2019-03-29T01:40:17.099Z,16.27
2019-03-29T01:45:25.170Z,16.04
2019-03-29T01:50:47.285Z,16.33
2019-03-29T01:55:47.315Z,18.05
2019-03-29T02:00:47.799Z,18.63
2019-03-29T02:05:47.823Z,20.72
2019-03-29T02:10:49.241Z,19.03
2019-03-29T02:15:37.210Z,17.98
2019-03-29T02:20:56.642Z,18.04
2019-03-29T02:25:57.655Z,18.54
2019-03-29T02:30:45.922Z,16.65
2019-03-29T02:35:54.074Z,15.21
2019-03-29T02:41:15.470Z,15.39
2019-03-29T02:46:15.591Z,15.76
2019-03-29T02:51:15.932Z,15.46
2019-03-29T02:56:04.049Z,16.21
2019-03-29T03:01:25.462Z,16.24
2019-03-29T03:06:25.571Z,16.18
2019-03-29T03:11:13.155Z,17.07
2019-03-29T03:16:21.217Z,16.24
2019-03-29T03:21:41.444Z,16.73
2019-03-29T03:26:42.451Z,16.29
2019-03-29T03:31:43.572Z,15.79
2019-03-29T03:36:44.529Z,16.02
2019-03-29T03:41:32.876Z,16.21
2019-03-29T03:46:52.868Z,15.26
2019-03-29T03:51:54.059Z,14.56
2019-03-29T03:56:55.012Z,14.46
2019-03-29T04:01:56.250Z,15.43
2019-03-29T04:06:43.528Z,15.38
2019-03-29T04:12:03.981Z,14.71
2019-03-29T04:17:05.066Z,15.15
2019-03-29T04:22:06.274Z,14.47
2019-03-29T04:27:07.228Z,14.01
2019-03-29T04:32:08.330Z,14.91
2019-03-29T04:37:09.312Z,13.86
2019-03-29T04:42:10.732Z,13.70
2019-03-29T04:47:10.928Z,13.46
2019-03-29T04:52:11.193Z,12.90
2019-03-29T04:56:58.359Z,13.53
2019-03-29T05:02:19.837Z,13.53
2019-03-29T05:07:07.079Z,12.58
2019-03-29T05:12:27.213Z,13.46
2019-03-29T05:17:28.209Z,13.91
2019-03-29T05:22:29.526Z,14.01
2019-03-29T05:27:16.657Z,13.66
2019-03-29T05:32:25.117Z,14.09
2019-03-29T05:37:45.128Z,13.63
2019-03-29T05:42:46.274Z,14.25
2019-03-29T05:47:47.240Z,14.20
2019-03-29T05:52:35.602Z,14.05
2019-03-29T05:57:42.799Z,13.98
2019-03-29T06:02:51.048Z,14.19
2019-03-29T06:08:11.010Z,14.43
2019-03-29T06:13:12.749Z,14.17
2019-03-29T06:23:04.117Z,13.81
2019-03-29T06:28:24.236Z,14.83
2019-03-29T06:33:24.336Z,14.71
2019-03-29T06:38:25.531Z,16.04
2019-03-29T06:43:26.604Z,15.36
2019-03-29T06:48:27.877Z,16.55
2019-03-29T06:53:28.261Z,16.28
2019-03-29T07:03:20.680Z,16.42
2019-03-29T07:13:33.265Z,16.74
2019-03-29T07:23:58.277Z,17.37
2019-03-29T07:28:59.339Z,17.55
2019-03-29T07:33:59.417Z,17.40
2019-03-29T07:39:00.615Z,19.90
2019-03-29T07:43:49.258Z,22.09
2019-03-29T07:49:09.570Z,16.46
2019-03-29T07:53:57.034Z,18.23
2019-03-29T07:59:17.044Z,17.68
2019-03-29T08:09:21.759Z,17.37
2019-03-29T08:19:20.920Z,16.82
2019-03-29T08:24:41.223Z,21.15
2019-03-29T08:29:41.267Z,23.24
2019-03-29T08:34:29.431Z,21.92
2019-03-29T08:39:50.537Z,25.41
2019-03-29T08:44:51.614Z,28.35
2019-03-29T08:49:40.220Z,23.34
2019-03-29T08:55:01.279Z,30.09
2019-03-29T09:00:02.389Z,30.42
2019-03-29T09:09:53.321Z,35.46
2019-03-29T09:15:03.605Z,44.52
2019-03-29T09:25:13.448Z,31.98
2019-03-29T09:30:20.856Z,31.24
2019-03-29T09:40:52.209Z,31.00
2019-03-29T09:45:44.792Z,30.59
2019-03-29T09:50:33.038Z,28.78
2019-03-29T09:55:40.326Z,28.92
2019-03-29T10:11:08.957Z,26.28
2019-03-29T10:16:09.292Z,25.67
2019-03-29T10:21:09.441Z,26.45
2019-03-29T10:26:09.702Z,28.16
2019-03-29T10:31:09.948Z,27.31
2019-03-29T10:36:10.262Z,29.11
2019-03-29T10:41:10.226Z,33.68
2019-03-29T10:46:11.392Z,36.32
2019-03-29T10:50:59.619Z,31.45
2019-03-29T10:56:33.457Z,27.43
2019-03-29T11:06:13.446Z,29.71
2019-03-29T11:11:34.060Z,29.37
2019-03-29T11:16:34.211Z,30.19
2019-03-29T11:21:35.403Z,29.92
2019-03-29T11:26:35.616Z,31.08
2019-03-29T11:31:36.809Z,28.97
2019-03-29T11:36:24.245Z,26.05
2019-03-29T11:41:44.395Z,25.98
2019-03-29T11:46:31.704Z,26.44
2019-03-29T11:51:51.789Z,25.48
2019-03-29T11:56:52.115Z,22.35
2019-03-29T12:01:52.188Z,19.96
2019-03-29T12:11:55.824Z,13.59
2019-03-29T12:16:44.658Z,14.21
2019-03-29T12:21:51.872Z,12.37
2019-03-29T12:32:01.413Z,11.59
2019-03-29T12:37:21.665Z,11.18
2019-03-29T12:42:09.844Z,11.15
2019-03-29T12:47:18.253Z,11.91
2019-03-29T12:57:29.461Z,11.04
2019-03-29T13:02:49.585Z,11.32
2019-03-29T13:07:36.922Z,11.28
2019-03-29T13:12:45.166Z,10.62
2019-03-29T13:17:53.485Z,10.80
2019-03-29T13:23:13.761Z,10.22
2019-03-29T13:28:15.042Z,9.92
2019-03-29T13:33:15.036Z,8.91
2019-03-29T13:38:03.298Z,8.54
2019-03-29T13:43:24.279Z,8.33
2019-03-29T13:48:12.402Z,8.38
2019-03-29T13:53:20.662Z,8.36
2019-03-29T13:58:28.056Z,8.67
2019-03-29T14:03:36.157Z,8.87
2019-03-29T14:08:44.568Z,8.78
2019-03-29T14:13:51.893Z,8.24
2019-03-29T14:18:59.449Z,8.70
2019-03-29T14:24:19.447Z,8.32
2019-03-29T14:29:08.112Z,8.66
2019-03-29T14:34:28.199Z,8.88
2019-03-29T14:39:29.325Z,8.37
2019-03-29T14:44:17.427Z,8.02
2019-03-29T14:49:38.610Z,7.24
2019-03-29T14:54:26.837Z,7.67
2019-03-29T14:59:35.145Z,7.06
2019-03-29T15:04:42.452Z,6.97
2019-03-29T15:09:49.899Z,7.85
2019-03-29T15:15:09.869Z,6.86
2019-03-29T15:19:58.312Z,6.82
2019-03-29T15:25:05.525Z,6.77
2019-03-29T15:30:25.737Z,6.61
2019-03-29T15:35:27.082Z,6.57
2019-03-29T15:40:14.548Z,7.07
2019-03-29T15:45:21.818Z,6.95
2019-03-29T15:50:41.858Z,6.63
2019-03-29T15:55:30.144Z,6.59
2019-03-29T16:00:50.524Z,6.80
2019-03-29T16:05:50.714Z,6.50
2019-03-29T16:15:54.722Z,6.31
2019-03-29T16:20:43.093Z,6.65
2019-03-29T16:26:03.196Z,6.63
2019-03-29T16:30:52.527Z,6.53
2019-03-29T16:36:03.611Z,6.70
2019-03-29T16:40:52.077Z,6.52
2019-03-29T16:46:13.111Z,6.21
2019-03-29T16:51:13.282Z,6.03
2019-03-29T16:56:13.472Z,6.07
2019-03-29T17:01:13.801Z,5.54
2019-03-29T17:06:13.844Z,5.96
2019-03-29T17:11:14.954Z,6.21
2019-03-29T17:16:29.411Z,6.05
2019-03-29T17:21:16.261Z,6.46
2019-03-29T17:26:04.526Z,6.34
2019-03-29T17:31:26.330Z,6.01
2019-03-29T17:36:13.681Z,6.46
2019-03-29T17:41:21.313Z,6.51
2019-03-29T17:51:42.506Z,6.75
2019-03-29T17:56:30.930Z,6.99
2019-03-29T18:06:54.857Z,6.76
2019-03-29T18:11:55.054Z,7.37
2019-03-29T18:26:47.134Z,7.25
2019-03-29T18:31:54.061Z,7.39
2019-03-29T18:37:02.207Z,7.44
2019-03-29T18:42:23.688Z,7.68
2019-03-29T18:47:23.874Z,7.95
2019-03-29T18:52:24.157Z,7.43
2019-03-29T18:57:25.203Z,7.08
2019-03-29T19:02:25.658Z,7.83
2019-03-29T19:07:26.867Z,7.96
2019-03-29T19:12:15.025Z,7.44
2019-03-29T19:17:36.083Z,7.49
2019-03-29T19:22:37.636Z,7.82
2019-03-29T19:27:37.533Z,8.46
2019-03-29T19:37:26.730Z,8.68
2019-03-29T19:47:40.010Z,9.90
2019-03-29T19:52:59.630Z,10.26
2019-03-29T19:57:59.846Z,10.05
2019-03-29T20:03:00.113Z,10.32
2019-03-29T20:07:47.454Z,9.82
2019-03-29T20:12:55.092Z,11.40
2019-03-29T20:23:06.353Z,11.18
2019-03-29T20:33:28.492Z,11.23
2019-03-29T20:43:33.412Z,12.30
2019-03-29T20:48:33.540Z,12.29
2019-03-29T20:53:33.727Z,12.56
2019-03-29T20:58:34.534Z,13.79
2019-03-29T21:03:22.991Z,13.92
2019-03-29T21:08:43.106Z,14.01
2019-03-29T21:13:30.359Z,14.21
2019-03-29T21:18:37.423Z,14.95
2019-03-29T21:23:47.259Z,15.60
2019-03-29T21:29:05.917Z,15.32
2019-03-29T21:33:54.236Z,15.77
2019-03-29T21:44:15.241Z,15.12
2019-03-29T21:49:15.292Z,15.16
2019-03-29T21:54:16.947Z,13.85
2019-03-29T21:59:17.251Z,13.46
2019-03-29T22:04:17.618Z,14.53
2019-03-29T22:14:18.556Z,14.01
2019-03-29T22:19:06.904Z,13.48
2019-03-29T22:24:14.337Z,13.77
2019-03-29T22:34:26.355Z,13.14
2019-03-29T22:39:33.746Z,13.41
2019-03-29T22:44:54.155Z,13.29
2019-03-29T22:49:41.384Z,13.28
2019-03-29T22:54:48.919Z,13.05
2019-03-29T23:10:04.131Z,13.32
2019-03-29T23:15:25.319Z,13.54
2019-03-29T23:20:13.546Z,13.94
2019-03-29T23:25:33.976Z,13.95
2019-03-29T23:30:34.140Z,13.94
2019-03-29T23:35:34.411Z,13.43
2019-03-29T23:40:34.674Z,14.40
2019-03-29T23:45:35.163Z,13.59
2019-03-29T23:50:22.256Z,12.88
2019-03-29T23:55:30.554Z,14.39
